Jpo Gemini — A8VF7 — position and weather

sailwx.info

Track history (hours):
 
Tides and Currents Weather Stations Pressure Air Temp Water Temp Dewpoint Dewpoint Depression Visibility Wind Speed Wind Dir Waves Ship Positions

Jpo Gemini

Last reported at 2016-May-04 14:00 UTC. Time now 2016-May-05 21:56 UTC.
Position N 01°06' W 001°48'.

Length 207 m; draft 10.9 m.

Type: Cargo ship. MMSI: 636091995.

Wind from 170 at 10 knots

Waves 1.5 meters (5 feet), 5 second period

Barometer 1013.0 mb
Air temperature 31.0 ° C
Visibility: greater than 10.8 NM
Dewpoint 28.4 ° C
Water temperature 32.0 ° C

Date/timePositionNaut miles runAvg speedWind from/ knotsBaromVisibWave heightAir tempDewpointWater temp
2016-May-04 14:00N 01°06' W 001°48'   170 / 101013.010.8 1.531.028.432.0
2016-May-02 00:31N 07°54' W 014°27'1313.6
2016-May-01 23:33N 08°03' W 014°37'1413.6
2016-May-01 22:33N 08°12' W 014°47'3213.7
2016-May-01 20:14N 08°34' W 015°11'913.7
2016-May-01 19:33N 08°40' W 015°18'1313.6
2016-May-01 18:33N 08°49' W 015°28'1413.8
2016-May-01 17:33N 08°58' W 015°38'1514.0
2016-May-01 16:30N 09°08' W 015°49'1414.0
2016-May-01 15:30N 09°18' W 015°60'1513.7
2016-May-01 14:23N 09°28' W 016°11'2913.5
2016-May-01 12:14N 09°47' W 016°33'3814.1
2016-May-01 09:33N 10°17' W 016°57'1414.5
2016-May-01 08:33N 10°30' W 017°04'1414.3
2016-May-01 07:33N 10°42' W 017°12'4413.2
2016-May-01 04:11N 11°24' W 017°28'813.4
2016-May-01 03:34N 11°32' W 017°29'1313.2
2016-May-01 02:33N 11°45' W 017°32'1813.2
2016-May-01 01:09N 12°03' W 017°36'813.4
2016-May-01 00:33N 12°11' W 017°38'1413.6
2016-Apr-30 23:33N 12°24' W 017°41'1313.5
2016-Apr-30 22:33N 12°37' W 017°44'1413.8
2016-Apr-30 21:34N 12°51' W 017°47'1413.7
2016-Apr-30 20:33N 13°04' W 017°48'1413.8
2016-Apr-30 19:33N 13°18' W 017°48'1413.8
2016-Apr-30 18:33N 13°32' W 017°48'1313.7
2016-Apr-30 17:34N 13°45' W 017°48'1413.7
2016-Apr-30 16:33N 13°59' W 017°47'1413.9
2016-Apr-30 15:30N 14°14' W 017°47'1711.3
2016-Apr-30 14:00N 14°30' W 017°42'3916.2 010 / 171013.0 5.4 2.024.021.122.0
2016-Apr-30 11:33N 15°09' W 017°46'1413.9
2016-Apr-30 10:33N 15°23' W 017°46'4 6.4
2016-Apr-30 10:00N 15°24' W 017°42'1330.9 010 / 141013.5 5.4 20.017.7
2016-Apr-30 09:34N 15°37' W 017°45'1513.7
2016-Apr-30 08:30N 15°52' W 017°45'2714.0
2016-Apr-30 06:33N 16°19' W 017°45'1414.4
2016-Apr-30 05:33N 16°33' W 017°44'1414.2
2016-Apr-30 04:33N 16°47' W 017°44'1614.2
2016-Apr-30 03:24N 17°04' W 017°44'1214.3
2016-Apr-30 02:33N 17°16' W 017°43'3 4.6
2016-Apr-30 02:00N 17°18' W 017°42'2618.2 360 / 171015.010.8 2.019.016.721.0
2016-Apr-30 00:33N 17°44' W 017°43'56214.6
2016-Apr-28 10:00N 26°42' W 014°48'55 9.5 040 / 121015.010.8 19.017.5
2016-Apr-28 04:08N 27°23' W 014°06'1214.5
2016-Apr-28 03:19N 27°33' W 013°59'1114.5
2016-Apr-28 02:33N 27°42' W 013°52'1514.4
2016-Apr-28 01:32N 27°54' W 013°43'1514.8
2016-Apr-28 00:33N 28°07' W 013°34'1514.7
2016-Apr-27 23:33N 28°18' W 013°24'1414.5
2016-Apr-27 22:33N 28°30' W 013°15'1514.8
2016-Apr-27 21:33N 28°42' W 013°05'1514.6
2016-Apr-27 20:31N 28°55' W 012°55'1415.0
2016-Apr-27 19:33N 29°06' W 012°45'1514.7
2016-Apr-27 18:33N 29°18' W 012°35'1414.5
2016-Apr-27 17:33N 29°30' W 012°26'1414.3
2016-Apr-27 16:33N 29°42' W 012°16'1414.3
2016-Apr-27 15:33N 29°53' W 012°07'1414.3
2016-Apr-27 14:33N 30°05' W 011°57'1414.2
2016-Apr-27 13:33N 30°17' W 011°48'1414.0
2016-Apr-27 12:33N 30°28' W 011°38'1514.1
2016-Apr-27 11:27N 30°40' W 011°27'1314.2
2016-Apr-27 10:33N 30°51' W 011°19'3614.3
2016-Apr-27 08:03N 31°20' W 010°55'11014.1
2016-Apr-27 00:18N 32°48' W 009°38'2514.4
2016-Apr-26 22:32N 33°07' W 009°19'6214.5
2016-Apr-26 18:14N 33°56' W 008°32'18913.8
2016-Apr-26 04:33N 35°57' W 005°35'1212.3
2016-Apr-26 03:33N 36°05' W 005°24'4 3.8
2016-Apr-26 02:31N 36°09' W 005°24'0 0.0
2016-Apr-26 01:31N 36°09' W 005°24'0 0.0
2016-Apr-26 00:31N 36°09' W 005°24'0 0.0
2016-Apr-25 23:13N 36°09' W 005°24'0 0.0
2016-Apr-25 22:31N 36°09' W 005°24'0 0.1
2016-Apr-25 21:31N 36°09' W 005°24'0 0.0
2016-Apr-25 20:31N 36°09' W 005°24'0 0.1
2016-Apr-25 19:31N 36°09' W 005°25'0 0.0
2016-Apr-25 18:18N 36°10' W 005°25'2 2.3
2016-Apr-25 17:33N 36°08' W 005°26'0 0.0
2016-Apr-25 16:31N 36°08' W 005°26'0 0.0
2016-Apr-25 15:28N 36°08' W 005°26'0 0.0
2016-Apr-25 14:25N 36°08' W 005°26'0 0.0
2016-Apr-25 13:31N 36°08' W 005°26'0 0.0
2016-Apr-25 12:31N 36°08' W 005°26'0 0.0
2016-Apr-25 11:28N 36°08' W 005°26'0 0.0
2016-Apr-25 10:31N 36°08' W 005°26'0 0.0
2016-Apr-25 09:31N 36°08' W 005°26'0 0.0
2016-Apr-25 08:31N 36°08' W 005°26'0 0.0
2016-Apr-25 07:28N 36°08' W 005°26'0 0.0
2016-Apr-25 06:31N 36°08' W 005°26'0 0.0
2016-Apr-25 05:28N 36°08' W 005°26'0 0.0
2016-Apr-25 04:31N 36°08' W 005°26'0 0.0
2016-Apr-25 03:31N 36°08' W 005°26'0 0.0
2016-Apr-25 02:31N 36°08' W 005°26'0 0.0
2016-Apr-25 01:31N 36°08' W 005°26'0 0.0
2016-Apr-25 00:31N 36°08' W 005°26'0 0.0
2016-Apr-24 23:31N 36°08' W 005°26'2 2.1
2016-Apr-24 22:34N 36°08' W 005°24'  
Track history (hours):
 
Tides and Currents Weather Stations Pressure Air Temp Water Temp Dewpoint Dewpoint Depression Visibility Wind Speed Wind Dir Waves Ship Positions

Jpo Gemini

Last reported at 2016-May-04 14:00 UTC. Time now 2016-May-05 21:56 UTC.
Position N 01°06' W 001°48'.

Length 207 m; draft 10.9 m.

Type: Cargo ship. MMSI: 636091995.

Wind from 170 at 10 knots

Waves 1.5 meters (5 feet), 5 second period

Barometer 1013.0 mb
Air temperature 31.0 ° C
Visibility: greater than 10.8 NM
Dewpoint 28.4 ° C
Water temperature 32.0 ° C

Date/timePositionNaut miles runAvg speedWind from/ knotsBaromVisibWave heightAir tempDewpointWater temp
2016-May-04 14:00N 01°06' W 001°48'   170 / 101013.010.8 1.531.028.432.0
2016-May-02 00:31N 07°54' W 014°27'1313.6
2016-May-01 23:33N 08°03' W 014°37'1413.6
2016-May-01 22:33N 08°12' W 014°47'3213.7
2016-May-01 20:14N 08°34' W 015°11'913.7
2016-May-01 19:33N 08°40' W 015°18'1313.6
2016-May-01 18:33N 08°49' W 015°28'1413.8
2016-May-01 17:33N 08°58' W 015°38'1514.0
2016-May-01 16:30N 09°08' W 015°49'1414.0
2016-May-01 15:30N 09°18' W 015°60'1513.7
2016-May-01 14:23N 09°28' W 016°11'2913.5
2016-May-01 12:14N 09°47' W 016°33'3814.1
2016-May-01 09:33N 10°17' W 016°57'1414.5
2016-May-01 08:33N 10°30' W 017°04'1414.3
2016-May-01 07:33N 10°42' W 017°12'4413.2
2016-May-01 04:11N 11°24' W 017°28'813.4
2016-May-01 03:34N 11°32' W 017°29'1313.2
2016-May-01 02:33N 11°45' W 017°32'1813.2
2016-May-01 01:09N 12°03' W 017°36'813.4
2016-May-01 00:33N 12°11' W 017°38'1413.6
2016-Apr-30 23:33N 12°24' W 017°41'1313.5
2016-Apr-30 22:33N 12°37' W 017°44'1413.8
2016-Apr-30 21:34N 12°51' W 017°47'1413.7
2016-Apr-30 20:33N 13°04' W 017°48'1413.8
2016-Apr-30 19:33N 13°18' W 017°48'1413.8
2016-Apr-30 18:33N 13°32' W 017°48'1313.7
2016-Apr-30 17:34N 13°45' W 017°48'1413.7
2016-Apr-30 16:33N 13°59' W 017°47'1413.9
2016-Apr-30 15:30N 14°14' W 017°47'1711.3
2016-Apr-30 14:00N 14°30' W 017°42'3916.2 010 / 171013.0 5.4 2.024.021.122.0
2016-Apr-30 11:33N 15°09' W 017°46'1413.9
2016-Apr-30 10:33N 15°23' W 017°46'4 6.4
2016-Apr-30 10:00N 15°24' W 017°42'1330.9 010 / 141013.5 5.4 20.017.7
2016-Apr-30 09:34N 15°37' W 017°45'1513.7
2016-Apr-30 08:30N 15°52' W 017°45'2714.0
2016-Apr-30 06:33N 16°19' W 017°45'1414.4
2016-Apr-30 05:33N 16°33' W 017°44'1414.2
2016-Apr-30 04:33N 16°47' W 017°44'1614.2
2016-Apr-30 03:24N 17°04' W 017°44'1214.3
2016-Apr-30 02:33N 17°16' W 017°43'3 4.6
2016-Apr-30 02:00N 17°18' W 017°42'2618.2 360 / 171015.010.8 2.019.016.721.0
2016-Apr-30 00:33N 17°44' W 017°43'56214.6
2016-Apr-28 10:00N 26°42' W 014°48'55 9.5 040 / 121015.010.8 19.017.5
2016-Apr-28 04:08N 27°23' W 014°06'1214.5
2016-Apr-28 03:19N 27°33' W 013°59'1114.5
2016-Apr-28 02:33N 27°42' W 013°52'1514.4
2016-Apr-28 01:32N 27°54' W 013°43'1514.8
2016-Apr-28 00:33N 28°07' W 013°34'1514.7
2016-Apr-27 23:33N 28°18' W 013°24'1414.5
2016-Apr-27 22:33N 28°30' W 013°15'1514.8
2016-Apr-27 21:33N 28°42' W 013°05'1514.6
2016-Apr-27 20:31N 28°55' W 012°55'1415.0
2016-Apr-27 19:33N 29°06' W 012°45'1514.7
2016-Apr-27 18:33N 29°18' W 012°35'1414.5
2016-Apr-27 17:33N 29°30' W 012°26'1414.3
2016-Apr-27 16:33N 29°42' W 012°16'1414.3
2016-Apr-27 15:33N 29°53' W 012°07'1414.3
2016-Apr-27 14:33N 30°05' W 011°57'1414.2
2016-Apr-27 13:33N 30°17' W 011°48'1414.0
2016-Apr-27 12:33N 30°28' W 011°38'1514.1
2016-Apr-27 11:27N 30°40' W 011°27'1314.2
2016-Apr-27 10:33N 30°51' W 011°19'3614.3
2016-Apr-27 08:03N 31°20' W 010°55'11014.1
2016-Apr-27 00:18N 32°48' W 009°38'2514.4
2016-Apr-26 22:32N 33°07' W 009°19'6214.5
2016-Apr-26 18:14N 33°56' W 008°32'18913.8
2016-Apr-26 04:33N 35°57' W 005°35'1212.3
2016-Apr-26 03:33N 36°05' W 005°24'4 3.8
2016-Apr-26 02:31N 36°09' W 005°24'0 0.0
2016-Apr-26 01:31N 36°09' W 005°24'0 0.0
2016-Apr-26 00:31N 36°09' W 005°24'0 0.0
2016-Apr-25 23:13N 36°09' W 005°24'0 0.0
2016-Apr-25 22:31N 36°09' W 005°24'0 0.1
2016-Apr-25 21:31N 36°09' W 005°24'0 0.0
2016-Apr-25 20:31N 36°09' W 005°24'0 0.1
2016-Apr-25 19:31N 36°09' W 005°25'0 0.0
2016-Apr-25 18:18N 36°10' W 005°25'2 2.3
2016-Apr-25 17:33N 36°08' W 005°26'0 0.0
2016-Apr-25 16:31N 36°08' W 005°26'0 0.0
2016-Apr-25 15:28N 36°08' W 005°26'0 0.0
2016-Apr-25 14:25N 36°08' W 005°26'0 0.0
2016-Apr-25 13:31N 36°08' W 005°26'0 0.0
2016-Apr-25 12:31N 36°08' W 005°26'0 0.0
2016-Apr-25 11:28N 36°08' W 005°26'0 0.0
2016-Apr-25 10:31N 36°08' W 005°26'0 0.0
2016-Apr-25 09:31N 36°08' W 005°26'0 0.0
2016-Apr-25 08:31N 36°08' W 005°26'0 0.0
2016-Apr-25 07:28N 36°08' W 005°26'0 0.0
2016-Apr-25 06:31N 36°08' W 005°26'0 0.0
2016-Apr-25 05:28N 36°08' W 005°26'0 0.0
2016-Apr-25 04:31N 36°08' W 005°26'0 0.0
2016-Apr-25 03:31N 36°08' W 005°26'0 0.0
2016-Apr-25 02:31N 36°08' W 005°26'0 0.0
2016-Apr-25 01:31N 36°08' W 005°26'0 0.0
2016-Apr-25 00:31N 36°08' W 005°26'0 0.0
2016-Apr-24 23:31N 36°08' W 005°26'2 2.1
2016-Apr-24 22:34N 36°08' W 005°24'  

Dump ship's entire track history